createdAt,value
2019-03-03T00:00:40.364Z,63.20
2019-03-03T00:01:49.983Z,35.87
2019-03-03T00:02:58.014Z,62.00
2019-03-03T00:04:06.149Z,45.10
2019-03-03T00:05:14.326Z,20.20
2019-03-03T00:06:22.295Z,26.17
2019-03-03T00:07:30.371Z,31.20
2019-03-03T00:08:38.361Z,56.03
2019-03-03T00:09:46.665Z,42.67
2019-03-03T00:10:54.665Z,34.90
2019-03-03T00:12:02.805Z,49.27
2019-03-03T00:13:10.825Z,50.27
2019-03-03T00:14:18.640Z,36.20
2019-03-03T00:15:26.636Z,57.93
2019-03-03T00:16:35.114Z,48.03
2019-03-03T00:17:43.662Z,43.40
2019-03-03T00:18:51.738Z,47.50
2019-03-03T00:19:59.814Z,65.33
2019-03-03T00:21:08.078Z,60.60
2019-03-03T00:22:16.044Z,39.87
2019-03-03T00:23:24.186Z,11.67
2019-03-03T00:24:32.233Z,54.87
2019-03-03T00:25:40.457Z,76.63
2019-03-03T00:26:48.691Z,86.83
2019-03-03T00:27:56.756Z,85.37
2019-03-03T00:29:04.776Z,24.27
2019-03-03T00:30:19.133Z,71.13
2019-03-03T00:31:31.542Z,15.47
2019-03-03T00:32:39.954Z,57.07
2019-03-03T00:33:48.566Z,67.47
2019-03-03T00:34:56.752Z,59.00
2019-03-03T00:36:04.905Z,68.70
2019-03-03T00:37:14.608Z,27.03
2019-03-03T00:38:24.540Z,15.97
2019-03-03T00:39:36.961Z,13.60
2019-03-03T00:41:03.570Z,13.73
2019-03-03T00:42:31.070Z,57.70
2019-03-03T00:43:59.052Z,36.00
2019-03-03T00:45:17.029Z,28.63
2019-03-03T00:46:32.916Z,17.10
2019-03-03T00:47:40.823Z,14.83
2019-03-03T00:48:48.512Z,15.03
2019-03-03T00:49:58.482Z,20.10
2019-03-03T00:51:07.230Z,24.63
2019-03-03T00:52:16.868Z,13.67
2019-03-03T00:53:34.150Z,12.03
2019-03-03T00:54:43.932Z,17.80
2019-03-03T00:56:06.091Z,16.57
2019-03-03T00:57:18.689Z,17.17
2019-03-03T00:58:34.115Z,14.10
2019-03-03T00:59:46.827Z,15.60
2019-03-03T01:01:02.559Z,22.30
2019-03-03T01:02:12.157Z,23.10
2019-03-03T01:03:21.619Z,16.80
2019-03-03T01:04:29.424Z,14.10
2019-03-03T01:05:41.428Z,17.17
2019-03-03T01:06:54.142Z,14.43
2019-03-03T01:08:20.008Z,22.20
2019-03-03T01:09:37.764Z,13.63
2019-03-03T01:10:48.098Z,16.13
2019-03-03T01:12:02.030Z,72.20
2019-03-03T01:13:11.592Z,18.97
2019-03-03T01:14:21.386Z,12.97
2019-03-03T01:15:43.351Z,11.37
2019-03-03T01:16:53.451Z,14.10
2019-03-03T01:18:03.134Z,23.90
2019-03-03T01:19:12.827Z,18.73
2019-03-03T01:20:20.418Z,15.93
2019-03-03T01:21:33.056Z,13.10
2019-03-03T01:22:59.275Z,11.33
2019-03-03T01:24:11.809Z,24.67
2019-03-03T01:25:20.008Z,14.63
2019-03-03T01:26:28.069Z,15.07
2019-03-03T01:27:36.426Z,64.73
2019-03-03T01:28:44.779Z,14.97
2019-03-03T01:29:53.290Z,13.27
2019-03-03T01:31:01.086Z,24.13
2019-03-03T01:32:09.474Z,24.73
2019-03-03T01:33:17.447Z,11.43
2019-03-03T01:34:25.465Z,14.20
2019-03-03T01:35:33.307Z,13.97
2019-03-03T01:36:41.252Z,13.03
2019-03-03T01:37:49.587Z,11.50
2019-03-03T01:38:57.803Z,17.37
2019-03-03T01:40:12.084Z,23.90
2019-03-03T01:41:20.188Z,27.50
2019-03-03T01:42:28.687Z,17.27
2019-03-03T01:43:36.752Z,12.60
2019-03-03T01:44:45.177Z,18.97
2019-03-03T01:45:53.349Z,14.77
2019-03-03T01:47:01.720Z,24.00
2019-03-03T01:48:09.799Z,66.13
2019-03-03T01:49:17.995Z,44.20
2019-03-03T01:50:26.091Z,11.57
2019-03-03T01:51:34.303Z,13.77
2019-03-03T01:52:42.336Z,11.07
2019-03-03T01:53:50.723Z,14.57
2019-03-03T01:54:58.992Z,19.00
2019-03-03T01:56:07.090Z,21.47
2019-03-03T01:57:15.152Z,16.57
2019-03-03T01:58:23.386Z,12.43
2019-03-03T01:59:31.386Z,13.00
2019-03-03T02:00:39.398Z,10.03
2019-03-03T02:01:47.639Z,12.20
2019-03-03T02:02:57.547Z,9.60
2019-03-03T02:04:05.561Z,21.97
2019-03-03T02:05:13.575Z,17.80
2019-03-03T02:06:21.539Z,11.50
2019-03-03T02:07:29.499Z,13.60
2019-03-03T02:08:37.795Z,12.40
2019-03-03T02:09:46.245Z,13.43
2019-03-03T02:10:54.822Z,11.23
2019-03-03T02:12:03.009Z,15.80
2019-03-03T02:13:11.205Z,20.33
2019-03-03T02:14:20.327Z,7.60
2019-03-03T02:15:28.422Z,9.17
2019-03-03T02:16:36.522Z,12.30
2019-03-03T02:17:45.030Z,9.50
2019-03-03T02:18:53.665Z,10.30
2019-03-03T02:20:02.240Z,18.63
2019-03-03T02:21:10.277Z,17.80
2019-03-03T02:22:18.844Z,15.53
2019-03-03T02:23:27.047Z,9.47
2019-03-03T02:24:35.294Z,10.27
2019-03-03T02:25:43.649Z,12.60
2019-03-03T02:26:52.525Z,10.63
2019-03-03T02:28:00.561Z,11.27
2019-03-03T02:29:08.601Z,20.33
2019-03-03T02:30:20.379Z,19.03
2019-03-03T02:31:28.567Z,12.30
2019-03-03T02:32:37.396Z,10.70
2019-03-03T02:33:45.883Z,46.23
2019-03-03T02:34:54.146Z,55.53
2019-03-03T02:36:02.630Z,73.40
2019-03-03T02:37:10.771Z,22.73
2019-03-03T02:38:18.619Z,13.03
2019-03-03T02:39:26.995Z,35.70
2019-03-03T02:40:35.057Z,9.13
2019-03-03T02:41:43.031Z,36.67
2019-03-03T02:42:51.246Z,8.87
2019-03-03T02:43:59.500Z,9.77
2019-03-03T02:45:11.439Z,35.87
2019-03-03T02:46:19.564Z,12.50
2019-03-03T02:47:27.674Z,9.50
2019-03-03T02:48:35.533Z,8.17
2019-03-03T02:49:44.130Z,9.43
2019-03-03T02:50:53.491Z,11.33
2019-03-03T02:52:01.976Z,12.23
2019-03-03T02:53:10.412Z,55.33
2019-03-03T02:54:18.525Z,16.20
2019-03-03T02:55:26.523Z,10.50
2019-03-03T02:56:34.567Z,11.50
2019-03-03T02:57:42.666Z,8.90
2019-03-03T02:58:51.061Z,10.63
2019-03-03T02:59:59.164Z,11.63
2019-03-03T03:01:09.018Z,16.20
2019-03-03T03:02:18.832Z,20.10
2019-03-03T03:03:26.935Z,10.80
2019-03-03T03:04:35.313Z,10.37
2019-03-03T03:05:46.141Z,11.80
2019-03-03T03:06:56.044Z,10.50
2019-03-03T03:08:05.998Z,12.93
2019-03-03T03:09:21.651Z,20.03
2019-03-03T03:10:37.035Z,9.50
2019-03-03T03:11:55.721Z,9.53
2019-03-03T03:13:05.414Z,14.73
2019-03-03T03:14:15.954Z,18.97
2019-03-03T03:15:42.130Z,11.70
2019-03-03T03:16:54.785Z,9.97
2019-03-03T03:18:04.415Z,11.87
2019-03-03T03:19:19.978Z,18.80
2019-03-03T03:20:32.545Z,12.87
2019-03-03T03:21:47.853Z,10.77
2019-03-03T03:23:00.569Z,21.33
2019-03-03T03:24:19.256Z,44.30
2019-03-03T03:25:45.158Z,12.13
2019-03-03T03:27:01.004Z,12.07
2019-03-03T03:28:19.648Z,20.30
2019-03-03T03:29:29.382Z,30.53
2019-03-03T03:30:41.576Z,13.20
2019-03-03T03:31:54.386Z,11.40
2019-03-03T03:33:07.344Z,13.60
2019-03-03T03:34:17.073Z,18.43
2019-03-03T03:35:36.070Z,11.07
2019-03-03T03:36:54.869Z,13.60
2019-03-03T03:38:04.933Z,10.37
2019-03-03T03:39:26.697Z,69.80
2019-03-03T03:40:42.353Z,40.07
2019-03-03T03:41:57.931Z,13.27
2019-03-03T03:43:13.271Z,14.37
2019-03-03T03:44:22.873Z,20.10
2019-03-03T03:45:32.770Z,13.00
2019-03-03T03:46:48.617Z,11.17
2019-03-03T03:48:14.337Z,14.43
2019-03-03T03:49:36.669Z,15.43
2019-03-03T03:50:55.764Z,10.53
2019-03-03T03:52:09.036Z,10.70
2019-03-03T03:53:30.127Z,20.10
2019-03-03T03:54:55.356Z,12.70
2019-03-03T03:56:04.099Z,14.80
2019-03-03T03:57:14.993Z,22.10
2019-03-03T03:58:24.610Z,16.70
2019-03-03T03:59:34.334Z,12.93
2019-03-03T04:00:54.387Z,12.47
2019-03-03T04:02:16.636Z,16.80
2019-03-03T04:03:24.828Z,16.20
2019-03-03T04:04:34.462Z,13.20
2019-03-03T04:05:47.117Z,12.87
2019-03-03T04:07:15.132Z,11.13
2019-03-03T04:08:27.619Z,18.23
2019-03-03T04:09:37.401Z,13.10
2019-03-03T04:10:59.695Z,11.37
2019-03-03T04:12:09.368Z,14.67
2019-03-03T04:13:21.641Z,23.17
2019-03-03T04:14:46.407Z,17.43
2019-03-03T04:16:11.975Z,12.43
2019-03-03T04:17:34.754Z,19.63
2019-03-03T04:18:51.051Z,10.03
2019-03-03T04:20:06.400Z,12.50
2019-03-03T04:21:21.691Z,19.07
2019-03-03T04:22:34.981Z,10.67
2019-03-03T04:23:55.066Z,16.80
2019-03-03T04:25:04.851Z,12.00
2019-03-03T04:26:26.414Z,18.50
2019-03-03T04:27:36.036Z,12.97
2019-03-03T04:28:57.503Z,10.17
2019-03-03T04:30:17.638Z,9.20
2019-03-03T04:31:33.008Z,17.63
2019-03-03T04:32:43.984Z,12.57
2019-03-03T04:34:06.913Z,12.57
2019-03-03T04:35:16.640Z,18.97
2019-03-03T04:36:42.254Z,16.50
2019-03-03T04:38:08.982Z,12.57
2019-03-03T04:39:24.176Z,19.47
2019-03-03T04:40:45.763Z,10.07
2019-03-03T04:41:55.294Z,10.77
2019-03-03T04:43:17.622Z,10.90
2019-03-03T04:44:27.259Z,17.20
2019-03-03T04:45:37.210Z,10.80
2019-03-03T04:46:46.884Z,13.20
2019-03-03T04:47:56.666Z,13.17
2019-03-03T04:49:06.721Z,11.67
2019-03-03T04:50:32.824Z,15.73
2019-03-03T04:51:45.699Z,9.23
2019-03-03T04:53:08.996Z,10.20
2019-03-03T04:54:18.525Z,18.90
2019-03-03T04:55:44.495Z,18.77
2019-03-03T04:56:54.275Z,11.33
2019-03-03T04:58:06.629Z,10.97
2019-03-03T04:59:22.349Z,17.30
2019-03-03T05:00:39.453Z,14.63
2019-03-03T05:02:04.063Z,12.07
2019-03-03T05:03:20.846Z,13.43
2019-03-03T05:04:36.922Z,18.53
2019-03-03T05:05:55.748Z,9.03
2019-03-03T05:07:06.954Z,11.27
2019-03-03T05:08:25.717Z,16.57
2019-03-03T05:09:35.266Z,13.23
2019-03-03T05:10:52.111Z,12.60
2019-03-03T05:12:27.712Z,8.77
2019-03-03T05:13:40.019Z,10.37
2019-03-03T05:14:48.133Z,11.93
2019-03-03T05:16:04.371Z,14.80
2019-03-03T05:17:17.171Z,12.33
2019-03-03T05:18:26.957Z,17.10
2019-03-03T05:19:34.951Z,6.90
2019-03-03T05:20:47.269Z,12.40
2019-03-03T05:21:55.335Z,8.13
2019-03-03T05:23:03.443Z,10.10
2019-03-03T05:24:11.782Z,10.80
2019-03-03T05:25:19.723Z,14.13
2019-03-03T05:26:27.910Z,17.20
2019-03-03T05:27:36.030Z,9.87
2019-03-03T05:28:44.236Z,9.23
2019-03-03T05:29:52.585Z,9.17
2019-03-03T05:31:00.985Z,19.13
2019-03-03T05:32:09.647Z,11.87
2019-03-03T05:33:17.983Z,30.40
2019-03-03T05:34:26.071Z,17.43
2019-03-03T05:35:34.023Z,9.77
2019-03-03T05:36:42.263Z,9.10
2019-03-03T05:37:50.378Z,10.37
2019-03-03T05:38:58.364Z,10.27
2019-03-03T05:40:10.547Z,8.67
2019-03-03T05:41:18.539Z,16.17
2019-03-03T05:42:26.765Z,18.80
2019-03-03T05:43:34.944Z,11.03
2019-03-03T05:44:43.176Z,8.70
2019-03-03T05:45:51.476Z,15.70
2019-03-03T05:47:00.049Z,7.90
2019-03-03T05:48:08.596Z,10.23
2019-03-03T05:49:16.504Z,13.43
2019-03-03T05:50:24.723Z,18.23
2019-03-03T05:51:33.139Z,15.97
2019-03-03T05:52:41.443Z,7.27
2019-03-03T05:53:49.583Z,28.20
2019-03-03T05:54:57.680Z,11.20
2019-03-03T05:56:05.856Z,8.67
2019-03-03T05:57:14.269Z,11.47
2019-03-03T05:58:22.473Z,18.10
2019-03-03T05:59:30.686Z,17.23
2019-03-03T06:00:38.778Z,11.53
2019-03-03T06:01:47.078Z,11.00
2019-03-03T06:02:55.180Z,8.77
2019-03-03T06:04:03.259Z,9.50
2019-03-03T06:05:11.905Z,11.93
2019-03-03T06:06:20.169Z,15.33
2019-03-03T06:07:28.077Z,18.17
2019-03-03T06:08:36.295Z,10.60
2019-03-03T06:09:44.718Z,10.50
2019-03-03T06:10:53.095Z,10.33
2019-03-03T06:12:01.084Z,8.97
2019-03-03T06:13:09.485Z,12.60
2019-03-03T06:14:17.586Z,11.83
2019-03-03T06:15:25.690Z,20.13
2019-03-03T06:16:34.026Z,18.67
2019-03-03T06:17:42.483Z,14.33
2019-03-03T06:18:50.672Z,10.77
2019-03-03T06:19:58.944Z,11.17
2019-03-03T06:21:07.199Z,9.90
2019-03-03T06:22:15.569Z,8.47
2019-03-03T06:23:23.525Z,17.13
2019-03-03T06:24:31.581Z,16.07
2019-03-03T06:25:40.040Z,8.30
2019-03-03T06:26:48.188Z,10.30
2019-03-03T06:27:56.645Z,11.77
2019-03-03T06:29:04.782Z,12.37
2019-03-03T06:30:16.319Z,11.23
2019-03-03T06:31:25.732Z,18.07
2019-03-03T06:32:33.885Z,18.10
2019-03-03T06:33:42.150Z,10.30
2019-03-03T06:34:50.385Z,9.63
2019-03-03T06:35:58.742Z,9.37
2019-03-03T06:37:06.782Z,9.90
2019-03-03T06:38:15.446Z,14.93
2019-03-03T06:39:23.588Z,18.00
2019-03-03T06:40:31.740Z,16.00
2019-03-03T06:41:40.051Z,10.20
2019-03-03T06:42:48.341Z,8.70
2019-03-03T06:43:56.351Z,11.60
2019-03-03T06:45:06.543Z,10.57
2019-03-03T06:46:15.062Z,11.57
2019-03-03T06:47:22.984Z,18.13
2019-03-03T06:48:33.293Z,17.87
2019-03-03T06:49:41.591Z,12.37
2019-03-03T06:50:49.780Z,11.17
2019-03-03T06:51:58.040Z,11.57
2019-03-03T06:53:06.385Z,10.17
2019-03-03T06:54:15.357Z,12.53
2019-03-03T06:55:23.316Z,14.80
2019-03-03T06:56:31.895Z,18.53
2019-03-03T06:57:40.111Z,11.80
2019-03-03T06:58:48.303Z,8.80
2019-03-03T06:59:56.402Z,9.20
2019-03-03T07:01:04.803Z,8.80
2019-03-03T07:02:13.539Z,17.67
2019-03-03T07:03:21.708Z,12.63
2019-03-03T07:04:31.195Z,17.73
2019-03-03T07:05:39.476Z,13.20
2019-03-03T07:06:47.693Z,8.47
2019-03-03T07:07:56.286Z,11.00
2019-03-03T07:09:05.830Z,9.50
2019-03-03T07:10:15.435Z,8.53
2019-03-03T07:11:23.818Z,18.63
2019-03-03T07:12:32.625Z,16.63
2019-03-03T07:13:40.729Z,8.23
2019-03-03T07:14:49.547Z,12.30
2019-03-03T07:15:57.837Z,7.10
2019-03-03T07:17:05.959Z,8.03
2019-03-03T07:18:14.549Z,9.53
2019-03-03T07:19:22.855Z,11.60
2019-03-03T07:20:31.407Z,16.63
2019-03-03T07:21:39.768Z,13.50
2019-03-03T07:22:47.796Z,10.40
2019-03-03T07:23:55.794Z,8.93
2019-03-03T07:25:05.630Z,9.37
2019-03-03T07:26:14.234Z,8.37
2019-03-03T07:27:22.874Z,9.13
2019-03-03T07:28:30.923Z,18.83
2019-03-03T07:29:39.133Z,12.90
2019-03-03T07:30:47.315Z,8.93
2019-03-03T07:31:55.662Z,10.87
2019-03-03T07:33:03.757Z,10.77
2019-03-03T07:34:11.760Z,8.47
2019-03-03T07:35:19.894Z,7.87
2019-03-03T07:36:28.132Z,16.23
2019-03-03T07:37:36.170Z,15.37
2019-03-03T07:38:45.400Z,8.50
2019-03-03T07:39:53.606Z,7.67
2019-03-03T07:41:01.910Z,7.93
2019-03-03T07:42:09.921Z,10.77
2019-03-03T07:43:19.255Z,8.17
2019-03-03T07:44:27.521Z,12.20
2019-03-03T07:45:35.535Z,15.67
2019-03-03T07:46:44.572Z,11.73
2019-03-03T07:47:52.852Z,12.00
2019-03-03T07:49:02.706Z,11.13
2019-03-03T07:50:10.981Z,10.13
2019-03-03T07:51:19.463Z,10.83
2019-03-03T07:52:27.593Z,12.90
2019-03-03T07:53:35.910Z,17.20
2019-03-03T07:54:44.822Z,10.40
2019-03-03T07:55:53.126Z,8.70
2019-03-03T07:57:01.721Z,9.27
2019-03-03T07:58:10.122Z,7.40
2019-03-03T07:59:18.482Z,7.53
2019-03-03T08:00:27.134Z,13.10
2019-03-03T08:01:35.368Z,15.13
2019-03-03T08:02:43.854Z,9.43
2019-03-03T08:03:52.051Z,7.23
2019-03-03T08:05:00.455Z,8.47
2019-03-03T08:06:09.065Z,8.30
2019-03-03T08:07:17.312Z,12.33
2019-03-03T08:08:25.581Z,11.40
2019-03-03T08:09:36.281Z,14.77
2019-03-03T08:10:44.688Z,10.47
2019-03-03T08:11:52.914Z,8.30
2019-03-03T08:13:08.946Z,8.10
2019-03-03T08:14:11.150Z,6.33
2019-03-03T08:15:20.320Z,7.70
2019-03-03T08:16:28.552Z,18.53
2019-03-03T08:17:36.649Z,17.87
2019-03-03T08:18:45.188Z,12.33
2019-03-03T08:19:53.431Z,9.83
2019-03-03T08:21:01.561Z,7.50
2019-03-03T08:22:09.579Z,12.33
2019-03-03T08:23:17.671Z,8.50
2019-03-03T08:24:26.049Z,10.03
2019-03-03T08:25:34.479Z,15.90
2019-03-03T08:26:42.715Z,16.70
2019-03-03T08:27:51.002Z,11.77
2019-03-03T08:28:59.085Z,8.13
2019-03-03T08:30:18.342Z,11.73
2019-03-03T08:31:26.666Z,8.03
2019-03-03T08:32:35.079Z,17.30
2019-03-03T08:33:44.002Z,16.33
2019-03-03T08:34:52.746Z,9.90
2019-03-03T08:36:01.074Z,5.57
2019-03-03T08:37:09.688Z,8.33
2019-03-03T08:38:18.311Z,6.50
2019-03-03T08:39:27.127Z,9.73
2019-03-03T08:40:35.215Z,15.17
2019-03-03T08:41:45.075Z,15.00
2019-03-03T08:43:04.437Z,8.47
2019-03-03T08:44:14.498Z,9.63
2019-03-03T08:45:41.741Z,5.83
2019-03-03T08:47:07.934Z,8.90
2019-03-03T08:48:18.008Z,7.23
2019-03-03T08:49:28.077Z,13.40
2019-03-03T08:50:37.958Z,16.80
2019-03-03T08:51:50.660Z,12.30
2019-03-03T08:53:02.864Z,8.50
2019-03-03T08:54:12.899Z,7.00
2019-03-03T08:55:33.790Z,7.07
2019-03-03T08:56:47.825Z,12.73
2019-03-03T08:57:57.574Z,6.80
2019-03-03T08:59:07.243Z,9.67
2019-03-03T09:00:19.251Z,8.90
2019-03-03T09:01:28.914Z,9.03
2019-03-03T09:02:38.454Z,16.03
2019-03-03T09:04:04.888Z,16.93
2019-03-03T09:05:23.780Z,8.17
2019-03-03T09:06:46.104Z,9.57
2019-03-03T09:07:56.038Z,9.00
2019-03-03T09:09:06.040Z,9.03
2019-03-03T09:10:25.048Z,7.27
2019-03-03T09:11:30.217Z,7.90
2019-03-03T09:12:43.180Z,16.97
2019-03-03T09:13:53.063Z,6.30
2019-03-03T09:15:09.512Z,8.37
2019-03-03T09:16:17.764Z,9.30
2019-03-03T09:17:43.171Z,7.23
2019-03-03T09:19:11.788Z,11.83
2019-03-03T09:20:23.950Z,9.60
2019-03-03T09:21:32.631Z,11.90
2019-03-03T09:22:46.458Z,15.47
2019-03-03T09:23:56.511Z,6.27
2019-03-03T09:25:20.233Z,7.13
2019-03-03T09:26:46.594Z,6.10
2019-03-03T09:28:14.435Z,6.57
2019-03-03T09:29:33.829Z,4.53
2019-03-03T09:30:59.670Z,13.33
2019-03-03T09:32:25.710Z,6.97
2019-03-03T09:33:44.752Z,8.93
2019-03-03T09:34:54.593Z,5.77
2019-03-03T09:36:07.085Z,4.73
2019-03-03T09:37:16.793Z,10.27
2019-03-03T09:38:43.197Z,7.23
2019-03-03T09:40:09.015Z,9.53
2019-03-03T09:41:15.058Z,3.83
2019-03-03T09:42:28.243Z,6.83
2019-03-03T09:43:42.338Z,11.50
2019-03-03T09:44:52.191Z,9.80
2019-03-03T09:46:14.790Z,7.27
2019-03-03T09:47:28.636Z,5.53
2019-03-03T09:48:54.843Z,11.97
2019-03-03T09:50:10.639Z,4.53
2019-03-03T09:51:18.907Z,7.40
2019-03-03T09:52:45.394Z,5.37
2019-03-03T09:54:07.390Z,14.33
2019-03-03T09:55:32.474Z,4.10
2019-03-03T09:56:42.408Z,12.30
2019-03-03T09:58:01.124Z,15.70
2019-03-03T09:59:14.814Z,4.77
2019-03-03T10:00:27.401Z,6.70
2019-03-03T10:01:53.896Z,11.60
2019-03-03T10:03:03.647Z,6.27
2019-03-03T10:04:16.819Z,4.60
2019-03-03T10:05:27.341Z,6.07
2019-03-03T10:06:53.081Z,5.83
2019-03-03T10:08:10.705Z,18.00
2019-03-03T10:09:38.610Z,12.73
2019-03-03T10:10:48.352Z,15.97
2019-03-03T10:11:58.100Z,5.60
2019-03-03T10:13:06.218Z,4.33
2019-03-03T10:14:23.331Z,4.57
2019-03-03T10:15:33.344Z,6.80
2019-03-03T10:16:43.173Z,24.87
2019-03-03T10:18:01.737Z,32.97
2019-03-03T10:19:18.042Z,9.83
2019-03-03T10:20:31.040Z,3.40
2019-03-03T10:21:43.720Z,9.60
2019-03-03T10:22:59.517Z,12.13
2019-03-03T10:24:09.379Z,6.53
2019-03-03T10:25:19.281Z,3.50
2019-03-03T10:26:29.129Z,4.63
2019-03-03T10:27:38.953Z,6.00
2019-03-03T10:28:57.532Z,26.87
2019-03-03T10:30:20.913Z,5.03
2019-03-03T10:31:30.916Z,4.57
2019-03-03T10:32:57.517Z,14.70
2019-03-03T10:34:05.425Z,3.30
2019-03-03T10:35:16.985Z,4.53
2019-03-03T10:36:29.735Z,4.70
2019-03-03T10:37:48.665Z,9.03
2019-03-03T10:39:11.221Z,11.13
2019-03-03T10:40:19.589Z,26.17
2019-03-03T10:41:36.497Z,17.17
2019-03-03T10:42:52.670Z,39.17
2019-03-03T10:44:05.909Z,13.63
2019-03-03T10:45:21.830Z,5.73
2019-03-03T10:46:41.384Z,7.23
2019-03-03T10:47:51.717Z,16.17
2019-03-03T10:49:04.860Z,4.17
2019-03-03T10:50:20.936Z,4.60
2019-03-03T10:51:36.772Z,5.77
2019-03-03T10:52:46.648Z,38.97
2019-03-03T10:54:05.288Z,15.97
2019-03-03T10:55:14.988Z,17.73
2019-03-03T10:56:24.818Z,7.40
2019-03-03T10:57:41.779Z,11.17
2019-03-03T10:58:54.324Z,24.97
2019-03-03T11:00:16.375Z,30.80
2019-03-03T11:01:29.056Z,10.90
2019-03-03T11:02:39.959Z,7.70
2019-03-03T11:03:49.802Z,41.07
2019-03-03T11:05:15.571Z,12.07
2019-03-03T11:06:25.105Z,4.33
2019-03-03T11:07:43.414Z,4.50
2019-03-03T11:08:58.911Z,14.10
2019-03-03T11:10:27.802Z,4.00
2019-03-03T11:11:37.388Z,4.53
2019-03-03T11:13:05.126Z,13.77
2019-03-03T11:14:24.527Z,4.63
2019-03-03T11:15:40.039Z,5.30
2019-03-03T11:17:00.394Z,15.13
2019-03-03T11:18:10.016Z,3.00
2019-03-03T11:19:22.227Z,3.97
2019-03-03T11:20:44.142Z,5.47
2019-03-03T11:21:56.413Z,13.60
2019-03-03T11:23:04.635Z,4.33
2019-03-03T11:24:31.878Z,6.20
2019-03-03T11:25:41.952Z,4.87
2019-03-03T11:27:07.890Z,14.50
2019-03-03T11:28:24.953Z,6.57
2019-03-03T11:29:41.140Z,7.97
2019-03-03T11:30:51.079Z,18.50
2019-03-03T11:32:07.061Z,12.07
2019-03-03T11:33:19.893Z,6.70
2019-03-03T11:34:33.198Z,5.60
2019-03-03T11:35:43.070Z,4.20
2019-03-03T11:36:59.003Z,14.97
2019-03-03T11:38:27.078Z,6.23
2019-03-03T11:39:49.221Z,8.10
2019-03-03T11:41:08.042Z,21.90
2019-03-03T11:42:34.277Z,41.33
2019-03-03T11:43:56.298Z,12.00
2019-03-03T11:45:22.701Z,79.63
2019-03-03T11:46:49.253Z,119.57
2019-03-03T11:48:04.106Z,109.60
2019-03-03T11:49:14.663Z,21.80
2019-03-03T11:50:24.835Z,5.00
2019-03-03T11:51:50.637Z,4.80
2019-03-03T11:53:03.992Z,13.83
2019-03-03T11:54:14.884Z,5.67
2019-03-03T11:55:24.638Z,4.63
2019-03-03T11:56:32.927Z,5.53
2019-03-03T11:57:43.075Z,3.63
2019-03-03T11:59:09.092Z,11.77
2019-03-03T12:00:22.266Z,2.60
2019-03-03T12:01:39.139Z,3.60
2019-03-03T12:02:54.006Z,11.17
2019-03-03T12:04:17.241Z,15.73
2019-03-03T12:05:37.229Z,3.57
2019-03-03T12:06:46.958Z,7.37
2019-03-03T12:08:03.051Z,15.07
2019-03-03T12:09:13.797Z,3.87
2019-03-03T12:10:34.106Z,3.57
2019-03-03T12:12:00.568Z,2.33
2019-03-03T12:13:20.462Z,4.40
2019-03-03T12:14:30.354Z,5.83
2019-03-03T12:15:41.047Z,5.87
2019-03-03T12:16:50.697Z,10.03
2019-03-03T12:17:58.476Z,16.37
2019-03-03T12:19:08.608Z,2.90
2019-03-03T12:20:24.411Z,3.60
2019-03-03T12:21:46.207Z,5.50
2019-03-03T12:22:59.223Z,11.50
2019-03-03T12:24:09.941Z,3.63
2019-03-03T12:25:17.887Z,3.60
2019-03-03T12:26:33.356Z,3.93
2019-03-03T12:27:52.515Z,5.10
2019-03-03T12:29:00.386Z,13.60
2019-03-03T12:30:29.406Z,7.80
2019-03-03T12:31:45.327Z,5.20
2019-03-03T12:33:05.401Z,13.47
2019-03-03T12:34:14.626Z,4.83
2019-03-03T12:35:24.617Z,3.70
2019-03-03T12:36:40.732Z,4.67
2019-03-03T12:37:50.990Z,10.00
2019-03-03T12:39:06.609Z,12.93
2019-03-03T12:40:32.551Z,4.63
2019-03-03T12:41:42.595Z,6.63
2019-03-03T12:42:52.909Z,11.67
2019-03-03T12:44:18.028Z,11.13
2019-03-03T12:45:33.219Z,3.07
2019-03-03T12:46:46.490Z,5.40
2019-03-03T12:47:54.336Z,12.20
2019-03-03T12:49:07.926Z,11.83
2019-03-03T12:50:20.824Z,3.40
2019-03-03T12:51:37.773Z,4.00
2019-03-03T12:52:59.516Z,5.53
2019-03-03T12:54:13.372Z,4.27
2019-03-03T12:55:26.274Z,10.80
2019-03-03T12:56:42.637Z,5.83
2019-03-03T12:57:52.678Z,9.40
2019-03-03T12:59:17.908Z,10.90
2019-03-03T13:00:27.597Z,4.37
2019-03-03T13:01:53.281Z,5.50
2019-03-03T13:03:19.434Z,34.10
2019-03-03T13:04:29.639Z,15.47
2019-03-03T13:05:45.344Z,13.37
2019-03-03T13:07:13.275Z,14.97
2019-03-03T13:08:22.982Z,4.60
2019-03-03T13:09:37.059Z,5.57
2019-03-03T13:10:46.868Z,4.27
2019-03-03T13:11:56.647Z,11.97
2019-03-03T13:13:15.168Z,12.40
2019-03-03T13:14:40.544Z,7.07
2019-03-03T13:16:07.237Z,5.27
2019-03-03T13:17:35.455Z,4.37
2019-03-03T13:18:48.581Z,4.30
2019-03-03T13:19:58.204Z,13.50
2019-03-03T13:21:10.766Z,10.40
2019-03-03T13:22:30.281Z,4.50
2019-03-03T13:23:40.562Z,4.00
2019-03-03T13:24:49.016Z,5.30
2019-03-03T13:26:18.820Z,13.53
2019-03-03T13:27:28.659Z,4.23
2019-03-03T13:28:38.163Z,4.53
2019-03-03T13:29:48.839Z,6.00
2019-03-03T13:31:05.052Z,19.83
2019-03-03T13:32:26.964Z,5.57
2019-03-03T13:33:43.749Z,7.53
2019-03-03T13:34:57.806Z,64.03
2019-03-03T13:36:11.034Z,28.23
2019-03-03T13:37:20.676Z,7.07
2019-03-03T13:38:30.506Z,27.27
2019-03-03T13:39:55.500Z,17.00
2019-03-03T13:41:05.335Z,85.90
2019-03-03T13:42:31.875Z,124.70
2019-03-03T13:43:40.232Z,92.33
2019-03-03T13:44:48.338Z,100.47
2019-03-03T13:45:57.613Z,116.27
2019-03-03T13:47:06.104Z,75.10
2019-03-03T13:48:14.805Z,76.07
2019-03-03T13:49:22.971Z,5.17
2019-03-03T13:50:31.378Z,3.23
2019-03-03T13:51:39.398Z,2.57
2019-03-03T13:52:47.352Z,5.23
2019-03-03T13:53:55.723Z,9.97
2019-03-03T13:55:03.834Z,11.13
2019-03-03T13:56:12.516Z,10.30
2019-03-03T13:57:20.810Z,4.50
2019-03-03T13:58:29.111Z,2.57
2019-03-03T13:59:37.323Z,4.30
2019-03-03T14:00:45.838Z,3.60
2019-03-03T14:01:53.973Z,7.37
2019-03-03T14:03:02.303Z,11.70
2019-03-03T14:04:12.179Z,8.17
2019-03-03T14:05:22.345Z,4.73
2019-03-03T14:06:30.824Z,4.13
2019-03-03T14:07:39.170Z,3.00
2019-03-03T14:08:47.540Z,3.43
2019-03-03T14:09:55.960Z,8.17
2019-03-03T14:11:04.112Z,10.63
2019-03-03T14:12:12.110Z,6.67
2019-03-03T14:13:20.486Z,4.53
2019-03-03T14:14:28.774Z,3.83
2019-03-03T14:15:37.120Z,4.40
2019-03-03T14:16:45.505Z,4.10
2019-03-03T14:17:53.825Z,4.47
2019-03-03T14:19:01.946Z,10.80
2019-03-03T14:20:24.330Z,8.73
2019-03-03T14:21:33.074Z,3.10
2019-03-03T14:22:41.556Z,4.67
2019-03-03T14:23:49.903Z,3.30
2019-03-03T14:24:57.985Z,10.00
2019-03-03T14:26:06.285Z,10.97
2019-03-03T14:27:14.756Z,3.03
2019-03-03T14:28:23.447Z,4.03
2019-03-03T14:29:31.697Z,2.50
2019-03-03T14:30:39.936Z,3.90
2019-03-03T14:31:48.258Z,3.27
2019-03-03T14:32:57.191Z,7.00
2019-03-03T14:34:06.157Z,10.00
2019-03-03T14:35:16.783Z,3.60
2019-03-03T14:36:24.879Z,2.53
2019-03-03T14:37:33.905Z,2.27
2019-03-03T14:38:42.235Z,2.70
2019-03-03T14:39:50.544Z,3.43
2019-03-03T14:40:58.934Z,10.90
2019-03-03T14:42:07.340Z,12.73
2019-03-03T14:43:15.716Z,3.53
2019-03-03T14:44:24.230Z,5.63
2019-03-03T14:45:33.043Z,2.60
2019-03-03T14:46:41.123Z,1.77
2019-03-03T14:47:49.657Z,3.20
2019-03-03T14:48:58.548Z,9.17
2019-03-03T14:50:14.448Z,10.07
2019-03-03T14:51:22.993Z,3.73
2019-03-03T14:52:30.966Z,3.23
2019-03-03T14:53:38.975Z,3.77
2019-03-03T14:54:47.172Z,2.33
2019-03-03T14:55:55.421Z,3.40
2019-03-03T14:57:03.517Z,10.67
2019-03-03T14:58:11.910Z,9.57
2019-03-03T14:59:20.103Z,3.67
2019-03-03T15:00:34.818Z,4.00
2019-03-03T15:01:43.312Z,2.50
2019-03-03T15:02:51.675Z,3.77
2019-03-03T15:03:59.612Z,10.80
2019-03-03T15:05:07.683Z,12.87
2019-03-03T15:06:24.126Z,8.03
2019-03-03T15:07:25.621Z,4.80
2019-03-03T15:08:33.993Z,2.10
2019-03-03T15:09:42.303Z,3.03
2019-03-03T15:10:50.280Z,3.00
2019-03-03T15:11:58.755Z,6.03
2019-03-03T15:13:06.815Z,11.43
2019-03-03T15:14:14.886Z,7.77
2019-03-03T15:15:30.437Z,3.30
2019-03-03T15:16:38.378Z,2.63
2019-03-03T15:17:47.162Z,3.20
2019-03-03T15:18:55.539Z,4.53
2019-03-03T15:20:03.813Z,9.77
2019-03-03T15:21:12.079Z,9.77
2019-03-03T15:22:20.378Z,2.80
2019-03-03T15:23:28.301Z,2.67
2019-03-03T15:24:36.676Z,3.73
2019-03-03T15:25:44.716Z,6.67
2019-03-03T15:26:52.962Z,2.07
2019-03-03T15:28:01.070Z,7.00
2019-03-03T15:29:09.499Z,9.47
2019-03-03T15:30:21.347Z,5.00
2019-03-03T15:31:37.477Z,2.47
2019-03-03T15:32:39.982Z,3.37
2019-03-03T15:33:48.126Z,3.27
2019-03-03T15:34:56.348Z,3.47
2019-03-03T15:36:04.886Z,11.20
2019-03-03T15:37:13.862Z,10.87
2019-03-03T15:38:22.129Z,2.83
2019-03-03T15:39:30.861Z,2.20